PT-0017 weather

Public forecast

Using degrees Celsius for public forecast. Weather courtesy of forecast.io.

Closest aviation weather report (METAR) to Alentejo Air Park

Closest report is Faro Airport, 45.7 nm (84.7 km) SE. Retrieved 2020/08/11 03:30 UTC (11 minutes ago):

LPFR 110330Z VRB02KT CAVOK 21/15 Q1010

Closest aviation forecast (TAF) to Alentejo Air Park

Closest forecast is Faro Airport, 45.7 nm (84.7 km) SE. Retrieved 2020-08-11 00:18 UTC (3 hours ago):

TAF LPFR 102300Z 1100/1124 VRB02KT CAVOK BECMG 1109/1112 25015KT BECMG 1118/1121 32015KT 9999 FEW035